sensor_id;sensor_type;location;lat;lon;timestamp;pressure;altitude;pressure_sealevel;temperature;humidity
68376;BME280;55318;52.068;5.188;2023-04-20T00:00:22;102467.0;;;9.98;40.03
68376;BME280;55318;52.068;5.188;2023-04-20T00:03:34;102468.0;;;9.84;40.06
68376;BME280;55318;52.068;5.188;2023-04-20T00:05:10;102467.0;;;9.92;42.05
68376;BME280;55318;52.068;5.188;2023-04-20T00:06:46;102465.00000000001;;;9.98;41.61
68376;BME280;55318;52.068;5.188;2023-04-20T00:08:22;102467.0;;;9.76;40.85
68376;BME280;55318;52.068;5.188;2023-04-20T00:11:35;102465.00000000001;;;9.73;40.78
68376;BME280;55318;52.068;5.188;2023-04-20T00:13:11;102458.0;;;9.5;40.92
68376;BME280;55318;52.068;5.188;2023-04-20T00:14:47;102458.0;;;9.59;41.03
68376;BME280;55318;52.068;5.188;2023-04-20T00:17:59;102456.0;;;9.64;43.32
68376;BME280;55318;52.068;5.188;2023-04-20T00:19:35;102454.0;;;9.31;44.34
68376;BME280;55318;52.068;5.188;2023-04-20T00:21:11;102451.0;;;9.23;43.72
68376;BME280;55318;52.068;5.188;2023-04-20T00:24:24;102449.0;;;9.22;42.79
68376;BME280;55318;52.068;5.188;2023-04-20T00:26:00;102440.00000000001;;;9.31;44.37
68376;BME280;55318;52.068;5.188;2023-04-20T00:27:36;102431.0;;;9.32;45.54
68376;BME280;55318;52.068;5.188;2023-04-20T00:30:48;102430.0;;;9.31;45.84
68376;BME280;55318;52.068;5.188;2023-04-20T00:32:24;102431.0;;;9.19;45.13
68376;BME280;55318;52.068;5.188;2023-04-20T00:34:00;102430.0;;;9.03;44.76
68376;BME280;55318;52.068;5.188;2023-04-20T00:35:36;102428.0;;;8.9;45.56
68376;BME280;55318;52.068;5.188;2023-04-20T00:38:49;102421.0;;;9.0;46.84
68376;BME280;55318;52.068;5.188;2023-04-20T00:40:25;102416.00000000001;;;9.02;47.1
68376;BME280;55318;52.068;5.188;2023-04-20T00:42:03;102414.00000000001;;;8.86;47.18
68376;BME280;55318;52.068;5.188;2023-04-20T00:45:24;102408.0;;;8.63;48.83
68376;BME280;55318;52.068;5.188;2023-04-20T00:47:00;102407.0;;;8.67;50.78
68376;BME280;55318;52.068;5.188;2023-04-20T00:48:36;102399.0;;;8.67;49.04
68376;BME280;55318;52.068;5.188;2023-04-20T00:50:13;102397.0;;;8.63;47.83
68376;BME280;55318;52.068;5.188;2023-04-20T00:53:27;102395.0;;;8.61;48.15
68376;BME280;55318;52.068;5.188;2023-04-20T00:55:04;102393.0;;;8.5;48.21
68376;BME280;55318;52.068;5.188;2023-04-20T00:56:41;102392.0;;;8.52;48.75
68376;BME280;55318;52.068;5.188;2023-04-20T00:59:54;102386.0;;;8.22;51.54
68376;BME280;55318;52.068;5.188;2023-04-20T01:01:30;102380.0;;;8.35;50.98
68376;BME280;55318;52.068;5.188;2023-04-20T01:03:07;102378.0;;;8.39;50.95
68376;BME280;55318;52.068;5.188;2023-04-20T01:06:19;102378.0;;;8.31;51.14
68376;BME280;55318;52.068;5.188;2023-04-20T01:07:55;102377.0;;;8.25;50.83
68376;BME280;55318;52.068;5.188;2023-04-20T01:09:31;102371.0;;;8.22;50.22
68376;BME280;55318;52.068;5.188;2023-04-20T01:11:07;102371.0;;;8.22;52.44
68376;BME280;55318;52.068;5.188;2023-04-20T01:14:19;102365.0;;;8.08;52.46
68376;BME280;55318;52.068;5.188;2023-04-20T01:15:57;102358.0;;;8.2;49.76
68376;BME280;55318;52.068;5.188;2023-04-20T01:17:33;102355.0;;;8.17;50.15
68376;BME280;55318;52.068;5.188;2023-04-20T01:20:47;102345.0;;;8.23;49.88
68376;BME280;55318;52.068;5.188;2023-04-20T01:22:23;102345.0;;;8.07;50.19
68376;BME280;55318;52.068;5.188;2023-04-20T01:23:59;102335.0;;;8.23;50.85
68376;BME280;55318;52.068;5.188;2023-04-20T01:27:12;102330.0;;;8.53;50.15
68376;BME280;55318;52.068;5.188;2023-04-20T01:28:48;102327.0;;;8.34;50.64
68376;BME280;55318;52.068;5.188;2023-04-20T01:30:25;102328.0;;;8.42;53.62
68376;BME280;55318;52.068;5.188;2023-04-20T01:33:37;102325.0;;;8.32;51.3
68376;BME280;55318;52.068;5.188;2023-04-20T01:35:14;102324.0;;;8.43;51.22
68376;BME280;55318;52.068;5.188;2023-04-20T01:36:50;102324.0;;;8.34;51.78
68376;BME280;55318;52.068;5.188;2023-04-20T01:38:28;102322.0;;;8.38;51.92
68376;BME280;55318;52.068;5.188;2023-04-20T01:41:45;102319.0;;;8.3;54.27
68376;BME280;55318;52.068;5.188;2023-04-20T01:43:21;102315.0;;;8.32;52.48
68376;BME280;55318;52.068;5.188;2023-04-20T01:44:58;102311.0;;;8.23;53.17
68376;BME280;55318;52.068;5.188;2023-04-20T01:48:12;102309.0;;;8.15;52.31
68376;BME280;55318;52.068;5.188;2023-04-20T01:49:48;102300.0;;;8.17;52.87
68376;BME280;55318;52.068;5.188;2023-04-20T01:51:24;102296.0;;;8.27;51.96
68376;BME280;55318;52.068;5.188;2023-04-20T01:53:01;102296.0;;;8.09;52.61
68376;BME280;55318;52.068;5.188;2023-04-20T01:56:13;102300.0;;;8.36;52.36
68376;BME280;55318;52.068;5.188;2023-04-20T01:57:50;102292.0;;;8.41;52.7
68376;BME280;55318;52.068;5.188;2023-04-20T01:59:26;102295.0;;;8.14;53.85
68376;BME280;55318;52.068;5.188;2023-04-20T02:02:38;102292.0;;;8.11;55.9
68376;BME280;55318;52.068;5.188;2023-04-20T02:04:15;102291.0;;;8.18;54.53
68376;BME280;55318;52.068;5.188;2023-04-20T02:05:50;102286.0;;;8.22;55.51
68376;BME280;55318;52.068;5.188;2023-04-20T02:09:03;102283.0;;;8.14;56.05
68376;BME280;55318;52.068;5.188;2023-04-20T02:10:39;102281.0;;;8.13;55.28
68376;BME280;55318;52.068;5.188;2023-04-20T02:12:15;102280.0;;;8.14;56.02
68376;BME280;55318;52.068;5.188;2023-04-20T02:15:27;102277.0;;;8.1;55.83
68376;BME280;55318;52.068;5.188;2023-04-20T02:17:04;102271.0;;;8.14;56.34
68376;BME280;55318;52.068;5.188;2023-04-20T02:18:39;102266.0;;;8.39;57.77
68376;BME280;55318;52.068;5.188;2023-04-20T02:20:16;102261.0;;;8.36;57.05
68376;BME280;55318;52.068;5.188;2023-04-20T02:23:28;102262.0;;;8.39;56.62
68376;BME280;55318;52.068;5.188;2023-04-20T02:25:07;102258.0;;;8.48;57.92
68376;BME280;55318;52.068;5.188;2023-04-20T02:26:43;102257.0;;;8.53;56.8
68376;BME280;55318;52.068;5.188;2023-04-20T02:29:55;102252.0;;;8.69;57.1
68376;BME280;55318;52.068;5.188;2023-04-20T02:31:31;102248.0;;;8.83;57.82
68376;BME280;55318;52.068;5.188;2023-04-20T02:33:08;102247.0;;;8.78;57.8
68376;BME280;55318;52.068;5.188;2023-04-20T02:36:20;102248.0;;;8.89;57.92
68376;BME280;55318;52.068;5.188;2023-04-20T02:37:56;102236.0;;;9.01;58.29
68376;BME280;55318;52.068;5.188;2023-04-20T02:39:32;102232.0;;;9.08;57.08
68376;BME280;55318;52.068;5.188;2023-04-20T02:41:08;102236.0;;;9.17;57.24
68376;BME280;55318;52.068;5.188;2023-04-20T02:44:20;102228.0;;;9.19;57.91
68376;BME280;55318;52.068;5.188;2023-04-20T02:45:56;102222.0;;;9.16;57.16
68376;BME280;55318;52.068;5.188;2023-04-20T02:47:33;102221.0;;;9.1;57.19
68376;BME280;55318;52.068;5.188;2023-04-20T02:50:45;102213.0;;;9.35;57.08
68376;BME280;55318;52.068;5.188;2023-04-20T02:52:21;102210.0;;;9.33;57.22
68376;BME280;55318;52.068;5.188;2023-04-20T02:53:57;102209.0;;;9.07;57.36
68376;BME280;55318;52.068;5.188;2023-04-20T02:57:09;102210.0;;;9.21;57.31
68376;BME280;55318;52.068;5.188;2023-04-20T02:58:45;102206.0;;;9.28;58.12
68376;BME280;55318;52.068;5.188;2023-04-20T03:00:22;102202.0;;;9.32;57.58
68376;BME280;55318;52.068;5.188;2023-04-20T03:03:34;102205.0;;;9.34;57.31
68376;BME280;55318;52.068;5.188;2023-04-20T03:05:10;102203.0;;;9.33;57.07
68376;BME280;55318;52.068;5.188;2023-04-20T03:06:48;102205.0;;;9.35;58.1
68376;BME280;55318;52.068;5.188;2023-04-20T03:08:24;102199.0;;;9.24;57.75
68376;BME280;55318;52.068;5.188;2023-04-20T03:11:37;102194.0;;;9.44;58.57
68376;BME280;55318;52.068;5.188;2023-04-20T03:13:13;102197.0;;;9.34;57.92
68376;BME280;55318;52.068;5.188;2023-04-20T03:14:49;102193.0;;;9.57;57.85
68376;BME280;55318;52.068;5.188;2023-04-20T03:18:01;102187.0;;;9.53;57.72
68376;BME280;55318;52.068;5.188;2023-04-20T03:19:37;102186.0;;;9.44;57.38
68376;BME280;55318;52.068;5.188;2023-04-20T03:21:13;102183.0;;;9.66;57.17
68376;BME280;55318;52.068;5.188;2023-04-20T03:24:25;102178.0;;;9.72;57.49
68376;BME280;55318;52.068;5.188;2023-04-20T03:26:02;102173.0;;;9.65;57.17
68376;BME280;55318;52.068;5.188;2023-04-20T03:27:38;102168.0;;;9.83;57.75
68376;BME280;55318;52.068;5.188;2023-04-20T03:29:14;102165.0;;;9.73;57.49
68376;BME280;55318;52.068;5.188;2023-04-20T03:32:26;102166.0;;;9.69;56.86
68376;BME280;55318;52.068;5.188;2023-04-20T03:34:02;102167.0;;;9.69;57.43
68376;BME280;55318;52.068;5.188;2023-04-20T03:35:38;102163.0;;;9.8;56.94
68376;BME280;55318;52.068;5.188;2023-04-20T03:38:50;102162.0;;;9.71;56.62
68376;BME280;55318;52.068;5.188;2023-04-20T03:40:27;102163.0;;;9.88;57.2
68376;BME280;55318;52.068;5.188;2023-04-20T03:42:03;102165.0;;;9.91;55.95
68376;BME280;55318;52.068;5.188;2023-04-20T03:45:16;102164.0;;;9.86;55.97
68376;BME280;55318;52.068;5.188;2023-04-20T03:46:52;102169.0;;;9.98;55.78
68376;BME280;55318;52.068;5.188;2023-04-20T03:48:29;102161.0;;;9.91;55.77
68376;BME280;55318;52.068;5.188;2023-04-20T03:51:42;102162.0;;;10.02;56.21
68376;BME280;55318;52.068;5.188;2023-04-20T03:53:18;102159.0;;;10.09;56.27
68376;BME280;55318;52.068;5.188;2023-04-20T03:54:55;102155.0;;;10.25;56.27
68376;BME280;55318;52.068;5.188;2023-04-20T03:56:31;102155.0;;;10.29;55.77
68376;BME280;55318;52.068;5.188;2023-04-20T03:59:43;102149.0;;;10.16;55.96
68376;BME280;55318;52.068;5.188;2023-04-20T04:01:19;102152.0;;;10.07;56.13
68376;BME280;55318;52.068;5.188;2023-04-20T04:02:55;102147.0;;;9.89;56.06
68376;BME280;55318;52.068;5.188;2023-04-20T04:06:08;102146.0;;;10.17;56.06
68376;BME280;55318;52.068;5.188;2023-04-20T04:07:46;102147.0;;;10.24;56.35
68376;BME280;55318;52.068;5.188;2023-04-20T04:09:22;102142.0;;;10.03;56.75
68376;BME280;55318;52.068;5.188;2023-04-20T04:12:35;102134.0;;;10.35;56.85
68376;BME280;55318;52.068;5.188;2023-04-20T04:14:11;102136.0;;;10.15;56.06
68376;BME280;55318;52.068;5.188;2023-04-20T04:15:47;102131.0;;;10.27;56.95
68376;BME280;55318;52.068;5.188;2023-04-20T04:17:23;102127.0;;;10.16;56.55
68376;BME280;55318;52.068;5.188;2023-04-20T04:20:36;102122.0;;;10.31;57.22
68376;BME280;55318;52.068;5.188;2023-04-20T04:22:13;102116.0;;;10.21;56.46
68376;BME280;55318;52.068;5.188;2023-04-20T04:23:49;102118.0;;;10.14;56.94
68376;BME280;55318;52.068;5.188;2023-04-20T04:27:01;102108.0;;;10.15;56.93
68376;BME280;55318;52.068;5.188;2023-04-20T04:28:37;102110.0;;;10.28;56.54
68376;BME280;55318;52.068;5.188;2023-04-20T04:30:13;102108.0;;;10.17;56.82
68376;BME280;55318;52.068;5.188;2023-04-20T04:33:25;102105.0;;;10.22;57.0
68376;BME280;55318;52.068;5.188;2023-04-20T04:35:02;102102.0;;;10.14;56.88
68376;BME280;55318;52.068;5.188;2023-04-20T04:36:38;102103.0;;;10.18;57.16
68376;BME280;55318;52.068;5.188;2023-04-20T04:38:14;102101.0;;;10.15;56.95
68376;BME280;55318;52.068;5.188;2023-04-20T04:41:26;102099.0;;;10.14;57.34
68376;BME280;55318;52.068;5.188;2023-04-20T04:43:02;102094.0;;;10.16;57.2
68376;BME280;55318;52.068;5.188;2023-04-20T04:44:39;102093.0;;;10.33;57.03
68376;BME280;55318;52.068;5.188;2023-04-20T04:47:52;102091.0;;;10.37;57.37
68376;BME280;55318;52.068;5.188;2023-04-20T04:49:28;102091.0;;;10.26;57.02
68376;BME280;55318;52.068;5.188;2023-04-20T04:51:04;102088.0;;;10.26;56.93
68376;BME280;55318;52.068;5.188;2023-04-20T04:54:16;102085.0;;;10.24;56.55
68376;BME280;55318;52.068;5.188;2023-04-20T04:55:52;102080.0;;;10.25;57.16
68376;BME280;55318;52.068;5.188;2023-04-20T04:57:28;102080.0;;;10.15;57.5
68376;BME280;55318;52.068;5.188;2023-04-20T05:00:41;102075.0;;;10.43;57.71
68376;BME280;55318;52.068;5.188;2023-04-20T05:02:17;102078.0;;;10.33;57.64
68376;BME280;55318;52.068;5.188;2023-04-20T05:03:54;102083.0;;;10.19;57.65
68376;BME280;55318;52.068;5.188;2023-04-20T05:05:30;102076.0;;;10.14;58.38
68376;BME280;55318;52.068;5.188;2023-04-20T05:08:42;102080.0;;;10.34;58.06
68376;BME280;55318;52.068;5.188;2023-04-20T05:10:18;102081.0;;;10.47;58.76
68376;BME280;55318;52.068;5.188;2023-04-20T05:11:54;102088.0;;;10.26;58.17
68376;BME280;55318;52.068;5.188;2023-04-20T05:15:07;102080.0;;;10.14;58.88
68376;BME280;55318;52.068;5.188;2023-04-20T05:16:44;102086.0;;;10.14;59.27
68376;BME280;55318;52.068;5.188;2023-04-20T05:18:20;102085.0;;;10.06;59.62
68376;BME280;55318;52.068;5.188;2023-04-20T05:21:32;102078.0;;;10.01;59.81
68376;BME280;55318;52.068;5.188;2023-04-20T05:23:08;102081.0;;;10.21;59.89
68376;BME280;55318;52.068;5.188;2023-04-20T05:24:44;102075.0;;;10.15;60.04
68376;BME280;55318;52.068;5.188;2023-04-20T05:26:21;102084.0;;;10.06;59.92
68376;BME280;55318;52.068;5.188;2023-04-20T05:29:33;102089.0;;;9.85;60.44
68376;BME280;55318;52.068;5.188;2023-04-20T05:31:09;102081.0;;;9.96;60.41
68376;BME280;55318;52.068;5.188;2023-04-20T05:32:45;102083.0;;;9.98;60.87
68376;BME280;55318;52.068;5.188;2023-04-20T05:35:58;102083.0;;;9.82;61.21
68376;BME280;55318;52.068;5.188;2023-04-20T05:37:34;102081.0;;;9.93;60.99
68376;BME280;55318;52.068;5.188;2023-04-20T05:39:11;102077.0;;;9.98;60.86
68376;BME280;55318;52.068;5.188;2023-04-20T05:42:23;102068.0;;;10.05;61.2
68376;BME280;55318;52.068;5.188;2023-04-20T05:43:59;102071.0;;;9.89;60.67
68376;BME280;55318;52.068;5.188;2023-04-20T05:45:36;102066.0;;;9.96;61.26
68376;BME280;55318;52.068;5.188;2023-04-20T05:48:48;102073.0;;;9.91;61.4
68376;BME280;55318;52.068;5.188;2023-04-20T05:50:26;102076.0;;;9.84;61.29
68376;BME280;55318;52.068;5.188;2023-04-20T05:52:02;102077.0;;;9.98;61.47
68376;BME280;55318;52.068;5.188;2023-04-20T05:53:38;102073.0;;;10.14;60.87
68376;BME280;55318;52.068;5.188;2023-04-20T05:56:50;102078.0;;;10.14;60.6
68376;BME280;55318;52.068;5.188;2023-04-20T05:58:26;102076.0;;;9.92;61.52
68376;BME280;55318;52.068;5.188;2023-04-20T06:00:03;102071.0;;;10.05;61.36
68376;BME280;55318;52.068;5.188;2023-04-20T06:03:15;102069.0;;;10.14;61.75
68376;BME280;55318;52.068;5.188;2023-04-20T06:04:52;102067.0;;;10.07;61.4
68376;BME280;55318;52.068;5.188;2023-04-20T06:06:28;102070.0;;;10.15;61.24
68376;BME280;55318;52.068;5.188;2023-04-20T06:09:40;102071.0;;;10.11;60.96
68376;BME280;55318;52.068;5.188;2023-04-20T06:11:16;102062.0;;;10.09;60.91
68376;BME280;55318;52.068;5.188;2023-04-20T06:12:52;102062.0;;;10.15;61.17
68376;BME280;55318;52.068;5.188;2023-04-20T06:14:28;102070.0;;;10.14;60.88
68376;BME280;55318;52.068;5.188;2023-04-20T06:17:42;102065.0;;;10.26;60.59
68376;BME280;55318;52.068;5.188;2023-04-20T06:19:18;102057.0;;;10.14;59.85
68376;BME280;55318;52.068;5.188;2023-04-20T06:20:54;102057.0;;;10.19;59.11
68376;BME280;55318;52.068;5.188;2023-04-20T06:24:07;102055.0;;;10.22;59.84
68376;BME280;55318;52.068;5.188;2023-04-20T06:25:43;102046.0;;;10.41;59.85
68376;BME280;55318;52.068;5.188;2023-04-20T06:27:19;102047.0;;;10.25;59.52
68376;BME280;55318;52.068;5.188;2023-04-20T06:30:32;102055.0;;;10.25;59.56
68376;BME280;55318;52.068;5.188;2023-04-20T06:32:08;102045.0;;;10.41;59.24
68376;BME280;55318;52.068;5.188;2023-04-20T06:33:44;102044.0;;;10.3;59.73
68376;BME280;55318;52.068;5.188;2023-04-20T06:36:57;102043.0;;;10.39;59.5
68376;BME280;55318;52.068;5.188;2023-04-20T06:38:33;102040.0;;;10.41;60.07
68376;BME280;55318;52.068;5.188;2023-04-20T06:40:10;102042.0;;;10.31;60.62
68376;BME280;55318;52.068;5.188;2023-04-20T06:41:46;102037.0;;;10.5;60.93
68376;BME280;55318;52.068;5.188;2023-04-20T06:44:58;102038.0;;;10.34;61.45
68376;BME280;55318;52.068;5.188;2023-04-20T06:46:34;102043.0;;;10.15;61.72
68376;BME280;55318;52.068;5.188;2023-04-20T06:48:10;102042.0;;;10.08;62.7
68376;BME280;55318;52.068;5.188;2023-04-20T06:51:22;102041.0;;;10.17;62.87
68376;BME280;55318;52.068;5.188;2023-04-20T06:52:59;102046.0;;;10.22;63.47
68376;BME280;55318;52.068;5.188;2023-04-20T06:54:37;102036.0;;;9.89;63.95
68376;BME280;55318;52.068;5.188;2023-04-20T06:57:49;102033.0;;;9.76;66.44
68376;BME280;55318;52.068;5.188;2023-04-20T06:59:25;102034.0;;;9.58;68.84
68376;BME280;55318;52.068;5.188;2023-04-20T07:01:01;102034.0;;;9.53;70.17
68376;BME280;55318;52.068;5.188;2023-04-20T07:02:42;102030.0;;;9.14;73.24
68376;BME280;55318;52.068;5.188;2023-04-20T07:05:55;102037.0;;;9.02;74.97
68376;BME280;55318;52.068;5.188;2023-04-20T07:07:31;102044.0;;;8.99;75.45
68376;BME280;55318;52.068;5.188;2023-04-20T07:09:07;102033.0;;;8.98;77.62
68376;BME280;55318;52.068;5.188;2023-04-20T07:12:19;102045.0;;;8.69;77.47
68376;BME280;55318;52.068;5.188;2023-04-20T07:13:56;102043.0;;;8.67;78.75
68376;BME280;55318;52.068;5.188;2023-04-20T07:15:32;102045.0;;;8.73;78.91
68376;BME280;55318;52.068;5.188;2023-04-20T07:18:44;102048.0;;;8.72;79.17
68376;BME280;55318;52.068;5.188;2023-04-20T07:20:20;102045.0;;;8.64;79.69
68376;BME280;55318;52.068;5.188;2023-04-20T07:21:56;102048.0;;;8.73;79.62
68376;BME280;55318;52.068;5.188;2023-04-20T07:23:32;102041.0;;;8.73;79.44
68376;BME280;55318;52.068;5.188;2023-04-20T07:26:45;102036.0;;;8.56;80.0
68376;BME280;55318;52.068;5.188;2023-04-20T07:28:21;102037.0;;;8.64;80.06
68376;BME280;55318;52.068;5.188;2023-04-20T07:29:57;102045.0;;;8.56;79.34
68376;BME280;55318;52.068;5.188;2023-04-20T07:33:09;102039.0;;;8.58;79.56
68376;BME280;55318;52.068;5.188;2023-04-20T07:34:45;102039.0;;;8.69;79.47
68376;BME280;55318;52.068;5.188;2023-04-20T07:36:21;102041.0;;;8.82;80.03
68376;BME280;55318;52.068;5.188;2023-04-20T07:39:34;102044.0;;;8.89;79.59
68376;BME280;55318;52.068;5.188;2023-04-20T07:41:10;102041.0;;;8.86;79.45
68376;BME280;55318;52.068;5.188;2023-04-20T07:42:46;102045.0;;;8.78;77.98
68376;BME280;55318;52.068;5.188;2023-04-20T07:45:58;102046.0;;;8.74;78.33
68376;BME280;55318;52.068;5.188;2023-04-20T07:47:34;102042.0;;;8.58;78.36
68376;BME280;55318;52.068;5.188;2023-04-20T07:49:11;102049.0;;;8.73;78.61
68376;BME280;55318;52.068;5.188;2023-04-20T07:50:48;102047.0;;;8.75;78.3
68376;BME280;55318;52.068;5.188;2023-04-20T07:54:00;102048.0;;;8.64;77.61
68376;BME280;55318;52.068;5.188;2023-04-20T07:55:36;102046.0;;;8.76;77.98
68376;BME280;55318;52.068;5.188;2023-04-20T07:57:12;102048.0;;;8.71;77.61
68376;BME280;55318;52.068;5.188;2023-04-20T08:00:25;102050.0;;;8.76;77.74
68376;BME280;55318;52.068;5.188;2023-04-20T08:02:01;102046.0;;;8.61;77.97
68376;BME280;55318;52.068;5.188;2023-04-20T08:03:38;102051.0;;;8.59;78.03
68376;BME280;55318;52.068;5.188;2023-04-20T08:06:50;102051.0;;;8.64;77.48
68376;BME280;55318;52.068;5.188;2023-04-20T08:08:26;102056.0;;;8.64;77.83
68376;BME280;55318;52.068;5.188;2023-04-20T08:10:03;102049.0;;;8.82;79.08
68376;BME280;55318;52.068;5.188;2023-04-20T08:11:39;102049.0;;;8.6;77.59
68376;BME280;55318;52.068;5.188;2023-04-20T08:14:51;102048.0;;;8.64;78.06
68376;BME280;55318;52.068;5.188;2023-04-20T08:16:29;102044.0;;;8.73;78.49
68376;BME280;55318;52.068;5.188;2023-04-20T08:18:05;102028.0;;;8.57;78.31
68376;BME280;55318;52.068;5.188;2023-04-20T08:21:17;102033.0;;;8.49;78.05
68376;BME280;55318;52.068;5.188;2023-04-20T08:22:53;102028.0;;;8.59;79.19
68376;BME280;55318;52.068;5.188;2023-04-20T08:24:29;102023.0;;;8.6;79.36
68376;BME280;55318;52.068;5.188;2023-04-20T08:27:41;102018.0;;;8.82;79.86
68376;BME280;55318;52.068;5.188;2023-04-20T08:29:18;102016.0;;;8.59;78.56
68376;BME280;55318;52.068;5.188;2023-04-20T08:30:54;102023.0;;;8.68;78.66
68376;BME280;55318;52.068;5.188;2023-04-20T08:34:07;102015.0;;;8.73;78.7
68376;BME280;55318;52.068;5.188;2023-04-20T08:35:43;102015.0;;;8.81;79.06
68376;BME280;55318;52.068;5.188;2023-04-20T08:37:19;102020.0;;;8.76;77.42
68376;BME280;55318;52.068;5.188;2023-04-20T08:39:03;102016.0;;;8.84;78.02
68376;BME280;55318;52.068;5.188;2023-04-20T08:42:19;102020.0;;;8.81;77.34
68376;BME280;55318;52.068;5.188;2023-04-20T08:43:55;102013.0;;;9.01;77.98
68376;BME280;55318;52.068;5.188;2023-04-20T08:45:31;102016.0;;;9.35;77.91
68376;BME280;55318;52.068;5.188;2023-04-20T08:48:45;102011.0;;;9.59;75.28
68376;BME280;55318;52.068;5.188;2023-04-20T08:50:21;102012.0;;;10.02;76.5
68376;BME280;55318;52.068;5.188;2023-04-20T08:51:57;102017.0;;;9.86;72.59
68376;BME280;55318;52.068;5.188;2023-04-20T08:53:34;102015.0;;;9.94;73.39
68376;BME280;55318;52.068;5.188;2023-04-20T08:56:51;102011.0;;;9.9;73.16
68376;BME280;55318;52.068;5.188;2023-04-20T08:58:30;102010.0;;;9.94;74.47
68376;BME280;55318;52.068;5.188;2023-04-20T09:02:35;102013.0;;;10.02;71.8
68376;BME280;55318;52.068;5.188;2023-04-20T09:04:24;102013.0;;;9.82;71.97
68376;BME280;55318;52.068;5.188;2023-04-20T09:06:02;102009.0;;;9.91;73.81
68376;BME280;55318;52.068;5.188;2023-04-20T09:09:15;102009.0;;;9.78;72.58
68376;BME280;55318;52.068;5.188;2023-04-20T09:10:52;102006.0;;;9.85;73.62
68376;BME280;55318;52.068;5.188;2023-04-20T09:12:39;102001.0;;;10.0;72.5
68376;BME280;55318;52.068;5.188;2023-04-20T09:15:52;101999.0;;;9.96;72.97
68376;BME280;55318;52.068;5.188;2023-04-20T09:17:31;102005.0;;;10.06;72.72
68376;BME280;55318;52.068;5.188;2023-04-20T09:19:08;102002.0;;;10.14;72.55
68376;BME280;55318;52.068;5.188;2023-04-20T09:20:44;101990.0;;;10.24;73.81
68376;BME280;55318;52.068;5.188;2023-04-20T09:24:06;101994.0;;;10.33;72.03
68376;BME280;55318;52.068;5.188;2023-04-20T09:25:43;101992.0;;;10.38;71.48
68376;BME280;55318;52.068;5.188;2023-04-20T09:27:19;101998.0;;;10.38;71.66
68376;BME280;55318;52.068;5.188;2023-04-20T09:30:36;101996.0;;;10.59;74.59
68376;BME280;55318;52.068;5.188;2023-04-20T09:32:20;101989.0;;;10.8;72.98
68376;BME280;55318;52.068;5.188;2023-04-20T09:33:58;101991.0;;;11.21;73.58
68376;BME280;55318;52.068;5.188;2023-04-20T09:35:35;101992.0;;;11.15;70.97
68376;BME280;55318;52.068;5.188;2023-04-20T09:39:07;101991.0;;;10.99;72.12
68376;BME280;55318;52.068;5.188;2023-04-20T09:40:44;101980.0;;;10.98;72.13
68376;BME280;55318;52.068;5.188;2023-04-20T09:42:21;101980.0;;;10.94;71.44
68376;BME280;55318;52.068;5.188;2023-04-20T09:44:02;101987.0;;;10.81;71.62
68376;BME280;55318;52.068;5.188;2023-04-20T09:47:15;101975.0;;;11.02;72.74
68376;BME280;55318;52.068;5.188;2023-04-20T09:48:52;101972.0;;;10.96;71.44
68376;BME280;55318;52.068;5.188;2023-04-20T09:50:29;101964.0;;;11.16;72.33
68376;BME280;55318;52.068;5.188;2023-04-20T09:52:06;101962.0;;;11.51;72.22
68376;BME280;55318;52.068;5.188;2023-04-20T09:55:20;101963.0;;;11.45;69.31
68376;BME280;55318;52.068;5.188;2023-04-20T09:56:59;101965.0;;;11.18;68.62
68376;BME280;55318;52.068;5.188;2023-04-20T09:58:35;101959.0;;;11.38;70.25
68376;BME280;55318;52.068;5.188;2023-04-20T10:01:49;101962.0;;;11.33;70.7
68376;BME280;55318;52.068;5.188;2023-04-20T10:03:25;101952.0;;;11.47;70.72
68376;BME280;55318;52.068;5.188;2023-04-20T10:05:02;101949.0;;;11.18;70.66
68376;BME280;55318;52.068;5.188;2023-04-20T10:08:38;101960.0;;;11.31;69.95
68376;BME280;55318;52.068;5.188;2023-04-20T10:10:15;101956.0;;;11.56;71.03
68376;BME280;55318;52.068;5.188;2023-04-20T10:11:51;101958.0;;;11.59;69.75
68376;BME280;55318;52.068;5.188;2023-04-20T10:13:32;101951.0;;;11.62;70.16
68376;BME280;55318;52.068;5.188;2023-04-20T10:15:09;101955.0;;;11.66;70.08
68376;BME280;55318;52.068;5.188;2023-04-20T10:18:34;101945.0;;;11.4;69.14
68376;BME280;55318;52.068;5.188;2023-04-20T10:20:20;101946.0;;;11.44;69.5
68376;BME280;55318;52.068;5.188;2023-04-20T10:21:56;101942.0;;;11.45;68.87
68376;BME280;55318;52.068;5.188;2023-04-20T10:23:33;101942.0;;;11.31;69.33
68376;BME280;55318;52.068;5.188;2023-04-20T10:26:51;101933.0;;;11.17;69.91
68376;BME280;55318;52.068;5.188;2023-04-20T10:28:36;101936.0;;;10.79;70.45
68376;BME280;55318;52.068;5.188;2023-04-20T10:30:14;101936.0;;;11.17;70.72
68376;BME280;55318;52.068;5.188;2023-04-20T10:31:50;101937.0;;;11.05;70.11
68376;BME280;55318;52.068;5.188;2023-04-20T10:35:05;101939.0;;;11.09;70.24
68376;BME280;55318;52.068;5.188;2023-04-20T10:36:42;101939.0;;;11.11;70.33
68376;BME280;55318;52.068;5.188;2023-04-20T10:38:27;101937.0;;;10.85;71.41
68376;BME280;55318;52.068;5.188;2023-04-20T10:41:51;101945.0;;;10.68;70.2
68376;BME280;55318;52.068;5.188;2023-04-20T10:43:34;101950.0;;;10.56;70.8
68376;BME280;55318;52.068;5.188;2023-04-20T10:45:10;101945.0;;;10.46;71.74
68376;BME280;55318;52.068;5.188;2023-04-20T10:46:48;101950.0;;;10.32;72.16
68376;BME280;55318;52.068;5.188;2023-04-20T10:50:05;101939.0;;;10.43;72.37
68376;BME280;55318;52.068;5.188;2023-04-20T10:51:45;101942.0;;;10.58;71.92
68376;BME280;55318;52.068;5.188;2023-04-20T10:53:22;101937.0;;;10.85;71.72
68376;BME280;55318;52.068;5.188;2023-04-20T10:54:58;101942.0;;;10.73;70.59
68376;BME280;55318;52.068;5.188;2023-04-20T10:58:21;101938.0;;;10.61;70.49
68376;BME280;55318;52.068;5.188;2023-04-20T10:59:58;101930.0;;;10.88;72.16
68376;BME280;55318;52.068;5.188;2023-04-20T11:01:35;101930.0;;;11.02;70.52
68376;BME280;55318;52.068;5.188;2023-04-20T11:03:11;101927.0;;;11.18;70.7
68376;BME280;55318;52.068;5.188;2023-04-20T11:06:23;101927.0;;;11.2;68.41
68376;BME280;55318;52.068;5.188;2023-04-20T11:07:59;101922.0;;;11.27;69.28
68376;BME280;55318;52.068;5.188;2023-04-20T11:09:36;101924.0;;;11.27;69.12
68376;BME280;55318;52.068;5.188;2023-04-20T11:12:58;101920.0;;;11.38;68.5